FGBT

Bata Airport

Equatorial Guinea
METAR FGBT 170700Z 00000KT 9999 FEW010 SCT100 25/25 Q1011
Observed Flight Rules
Dec-17 @ 07:00 UTC (an hour ago) Visual Flight Rules
Wind Visibility Clouds
Calm 10,000+ meters
  • Few at 1,000' AGL
  • Scattered at 10,000' AGL
Temperatures Readings
Current 25°C / 77°F
Dewpoint 25°C / 77°F
Humidity 100%
Altimeter 29.85" Hg
Pressure 1011 hPa
Elevation 8
METAR FGBT 170700Z 00000KT 9999 FEW010 SCT100 25/25 Q1011
Observed Flight Rules
Dec-17 @ 07:00 UTC
(an hour ago)
VFR
Wind Visibility
Calm 10,000+ meters
Clouds
  • Few at 1,000' AGL
  • Scattered at 10,000' AGL
Temperature Dewpoint
25°C / 77°F 25°C / 77°F
Humidity Altimeter Pressure
100% 29.85" Hg 1011 hPa